Time;durP1;ratioP1;P1;durP2;ratioP2;P2;SDS_P1;SDS_P2;PMS_P1;PMS_P2;Temp;Humidity;BMP_temperature;BMP_pressure;BME280_temperature;BME280_humidity;BME280_pressure;Samples;Min_cycle;Max_cycle;Signal;HPM_P1;HPM_P2
2023/03/23 00:01:04;;;;;;;2.27;1.60;;;13.30;99.90;;;;;;5054553;28;20917;-73
2023/03/23 00:03:31;;;;;;;3.83;1.47;;;13.30;99.90;;;;;;5052524;28;20422;-72
2023/03/23 00:06:04;;;;;;;2.80;1.37;;;13.20;99.90;;;;;;5034193;28;20545;-73
2023/03/23 00:08:45;;;;;;;1.87;1.50;;;13.30;99.90;;;;;;5034174;28;20395;-72
2023/03/23 00:11:15;;;;;;;3.13;1.33;;;13.20;99.90;;;;;;5034037;28;20410;-71
2023/03/23 00:13:42;;;;;;;2.90;1.77;;;13.20;99.90;;;;;;5033099;28;20446;-73
2023/03/23 00:16:28;;;;;;;1.87;1.37;;;13.20;99.90;;;;;;5034740;28;20493;-72
2023/03/23 00:18:55;;;;;;;1.40;1.30;;;13.20;99.90;;;;;;5033937;28;20766;-72
2023/03/23 00:21:33;;;;;;;2.87;1.67;;;13.20;99.90;;;;;;5034652;28;20885;-73
2023/03/23 00:24:00;;;;;;;1.33;1.23;;;13.20;99.90;;;;;;5033118;28;20429;-72
2023/03/23 00:26:28;;;;;;;1.63;1.33;;;13.20;99.90;;;;;;5034263;28;20399;-73
2023/03/23 00:28:54;;;;;;;1.60;1.40;;;13.20;99.90;;;;;;5034129;28;20422;-73
2023/03/23 00:31:19;;;;;;;2.03;1.67;;;13.30;99.90;;;;;;5035308;28;20410;-73
2023/03/23 00:33:45;;;;;;;2.03;1.67;;;13.40;99.90;;;;;;5034075;28;20275;-73
2023/03/23 00:36:11;;;;;;;2.20;1.67;;;13.30;99.90;;;;;;5032796;28;20246;-72
2023/03/23 00:38:38;;;;;;;1.97;1.37;;;13.30;99.90;;;;;;5032464;28;20180;-72
2023/03/23 00:41:05;;;;;;;2.33;1.50;;;13.30;99.90;;;;;;5032397;28;20505;-72
2023/03/23 00:43:31;;;;;;;1.77;1.20;;;13.40;99.90;;;;;;5032473;28;20476;-72
2023/03/23 00:46:00;;;;;;;2.57;1.30;;;13.30;99.90;;;;;;5032760;28;20485;-73
2023/03/23 00:48:27;;;;;;;3.17;1.73;;;13.40;99.90;;;;;;5036497;28;20494;-71
2023/03/23 00:50:55;;;;;;;1.50;1.20;;;13.30;99.90;;;;;;5063592;28;20941;-71
2023/03/23 00:53:22;;;;;;;1.67;1.30;;;13.30;99.90;;;;;;5052337;28;20834;-71
2023/03/23 00:55:49;;;;;;;1.53;1.43;;;13.30;99.90;;;;;;5052284;28;20487;-72
2023/03/23 00:58:15;;;;;;;2.40;1.00;;;13.30;99.90;;;;;;5052043;28;20405;-71
2023/03/23 01:00:41;;;;;;;1.60;1.40;;;13.30;99.90;;;;;;5050935;28;20488;-71
2023/03/23 01:03:11;;;;;;;1.87;1.60;;;13.40;99.90;;;;;;5052147;28;20463;-71
2023/03/23 01:05:38;;;;;;;2.00;1.80;;;13.30;99.90;;;;;;5034241;28;21031;-73
2023/03/23 01:08:05;;;;;;;1.67;1.30;;;13.30;99.90;;;;;;5031959;28;20440;-72
2023/03/23 01:10:38;;;;;;;3.30;1.50;;;13.30;99.90;;;;;;5032058;28;20410;-72
2023/03/23 01:13:04;;;;;;;1.60;1.50;;;13.40;99.90;;;;;;5031669;28;21041;-72
2023/03/23 01:15:30;;;;;;;1.43;1.33;;;13.40;99.90;;;;;;5032429;28;20391;-72
2023/03/23 01:17:56;;;;;;;2.60;1.40;;;13.40;99.90;;;;;;5032014;28;20413;-71
2023/03/23 01:20:24;;;;;;;2.30;1.50;;;13.40;99.90;;;;;;5032057;28;20197;-71
2023/03/23 01:22:49;;;;;;;2.00;1.80;;;13.40;99.90;;;;;;5032060;28;20440;-71
2023/03/23 01:25:15;;;;;;;1.93;1.77;;;13.30;99.90;;;;;;5031921;28;20485;-72
2023/03/23 01:27:41;;;;;;;5.00;1.73;;;13.30;99.90;;;;;;5031622;28;20405;-72
2023/03/23 01:30:10;;;;;;;1.70;1.37;;;13.40;99.90;;;;;;5032067;28;20538;-72
2023/03/23 01:32:35;;;;;;;6.33;1.73;;;13.40;99.90;;;;;;5030573;28;20195;-72
2023/03/23 01:35:01;;;;;;;2.87;1.53;;;13.40;99.90;;;;;;5031963;28;20460;-72
2023/03/23 01:37:27;;;;;;;1.90;1.50;;;13.30;99.90;;;;;;5032153;28;20664;-73
2023/03/23 01:39:54;;;;;;;3.73;1.63;;;13.30;99.90;;;;;;5030801;28;20191;-73
2023/03/23 01:42:25;;;;;;;2.10;1.40;;;13.30;99.90;;;;;;5031785;28;20679;-72
2023/03/23 01:44:50;;;;;;;1.50;1.40;;;13.40;99.90;;;;;;5031892;28;20398;-73
2023/03/23 01:47:17;;;;;;;2.60;1.53;;;13.30;99.90;;;;;;5031519;28;20453;-72
2023/03/23 01:49:47;;;;;;;1.93;1.50;;;13.30;99.90;;;;;;5031746;28;20178;-72
2023/03/23 01:52:23;;;;;;;1.90;1.70;;;13.20;99.90;;;;;;5031804;28;20419;-72
2023/03/23 01:54:51;;;;;;;3.07;1.70;;;13.20;99.90;;;;;;5031774;28;20402;-71
2023/03/23 01:57:19;;;;;;;2.30;1.60;;;13.10;99.90;;;;;;5031498;28;20908;-72
2023/03/23 01:59:49;;;;;;;2.50;1.60;;;13.10;99.90;;;;;;5032737;28;20477;-71
2023/03/23 02:02:16;;;;;;;3.03;1.60;;;13.00;99.90;;;;;;5059943;28;20762;-72
2023/03/23 02:04:42;;;;;;;5.00;1.80;;;12.90;99.90;;;;;;5060821;28;20895;-71
2023/03/23 02:07:09;;;;;;;3.17;2.07;;;12.80;99.90;;;;;;5051351;28;20459;-71
2023/03/23 02:09:35;;;;;;;2.70;1.87;;;12.70;99.90;;;;;;5050277;28;20163;-71
2023/03/23 02:12:00;;;;;;;4.70;1.97;;;12.70;99.90;;;;;;5051485;28;20429;-71
2023/03/23 02:14:28;;;;;;;1.80;1.53;;;12.70;99.90;;;;;;5051313;28;20523;-71
2023/03/23 02:17:10;;;;;;;2.10;1.20;;;12.70;99.90;;;;;;5051307;28;20699;-71
2023/03/23 02:19:58;;;;;;;2.20;1.53;;;12.60;99.90;;;;;;5051481;28;20397;-71
2023/03/23 02:22:38;;;;;;;1.57;1.33;;;12.60;99.90;;;;;;5050024;28;20433;-72
2023/03/23 02:25:23;;;;;;;2.90;1.40;;;12.70;99.90;;;;;;5052415;28;20381;-71
2023/03/23 02:27:54;;;;;;;1.50;1.40;;;12.60;99.90;;;;;;5054978;28;20413;-71
2023/03/23 02:30:47;;;;;;;1.93;1.53;;;12.50;99.90;;;;;;5055094;28;20808;-71
2023/03/23 02:33:29;;;;;;;2.40;2.00;;;12.60;99.90;;;;;;5054992;28;20432;-71
2023/03/23 02:36:03;;;;;;;1.87;1.67;;;12.50;99.90;;;;;;5055045;28;20496;-71
2023/03/23 02:38:41;;;;;;;1.97;1.60;;;12.40;99.90;;;;;;5054689;28;20487;-71
2023/03/23 02:41:10;;;;;;;2.30;2.10;;;12.40;99.90;;;;;;5054878;28;20448;-71
2023/03/23 02:43:42;;;;;;;2.97;1.13;;;12.40;99.90;;;;;;5054769;28;20475;-71
2023/03/23 02:46:09;;;;;;;2.07;1.70;;;12.40;99.90;;;;;;5054693;28;20467;-71
2023/03/23 02:48:37;;;;;;;2.53;1.80;;;12.40;99.90;;;;;;5054490;28;20839;-71
2023/03/23 02:51:05;;;;;;;3.60;1.90;;;12.30;99.90;;;;;;5054657;28;20410;-71
2023/03/23 02:53:33;;;;;;;4.10;1.67;;;12.40;99.90;;;;;;5054450;28;20797;-72
2023/03/23 02:56:02;;;;;;;2.00;1.73;;;12.40;99.90;;;;;;5054598;28;20906;-71
2023/03/23 02:58:28;;;;;;;1.57;1.43;;;12.40;99.90;;;;;;5054311;28;20405;-71
2023/03/23 03:00:56;;;;;;;2.03;1.57;;;12.40;99.90;;;;;;5054415;28;20445;-72
2023/03/23 03:03:25;;;;;;;1.67;1.37;;;12.40;99.90;;;;;;5054363;28;20425;-71
2023/03/23 03:05:59;;;;;;;4.80;2.13;;;12.30;99.90;;;;;;5033151;28;20411;-71
2023/03/23 03:08:27;;;;;;;1.30;1.20;;;12.30;99.90;;;;;;5034240;28;20402;-71
2023/03/23 03:11:03;;;;;;;2.00;1.70;;;12.40;99.90;;;;;;5034366;28;20489;-71
2023/03/23 03:13:47;;;;;;;1.20;1.10;;;12.40;99.90;;;;;;5066307;28;20590;-71
2023/03/23 03:16:44;;;;;;;2.90;1.80;;;12.30;99.90;;;;;;5053046;28;20967;-71
2023/03/23 03:19:15;;;;;;;1.77;1.60;;;12.40;99.90;;;;;;5053998;28;20926;-71
2023/03/23 03:21:44;;;;;;;1.63;1.40;;;12.30;99.90;;;;;;5053994;28;20468;-71
2023/03/23 03:24:12;;;;;;;1.40;1.30;;;12.40;99.90;;;;;;5054052;28;20504;-71
2023/03/23 03:26:47;;;;;;;2.00;1.47;;;12.30;99.90;;;;;;5053893;28;20873;-71
2023/03/23 03:29:17;;;;;;;2.67;1.67;;;12.40;99.90;;;;;;5053941;28;20435;-71
2023/03/23 03:31:47;;;;;;;2.13;1.50;;;12.30;99.90;;;;;;5053894;28;20417;-71
2023/03/23 03:34:17;;;;;;;2.43;1.83;;;12.40;99.90;;;;;;5053931;28;20438;-71
2023/03/23 03:36:45;;;;;;;2.07;1.30;;;12.40;99.90;;;;;;5053482;28;20483;-71
2023/03/23 03:39:14;;;;;;;2.27;1.67;;;12.40;99.90;;;;;;5053683;28;20409;-71
2023/03/23 03:41:41;;;;;;;1.40;1.10;;;12.40;99.90;;;;;;5053544;28;20457;-71
2023/03/23 03:44:08;;;;;;;1.60;1.37;;;12.40;99.90;;;;;;5053796;28;20599;-71
2023/03/23 03:46:35;;;;;;;1.77;1.63;;;12.40;99.90;;;;;;5053557;28;20420;-71
2023/03/23 03:49:02;;;;;;;1.30;1.20;;;12.40;99.90;;;;;;5053400;28;20486;-71
2023/03/23 03:51:29;;;;;;;2.80;1.10;;;12.50;99.90;;;;;;5053551;28;20902;-71
2023/03/23 03:53:55;;;;;;;2.80;1.60;;;12.50;99.90;;;;;;5053486;28;20935;-71
2023/03/23 03:56:21;;;;;;;2.70;1.47;;;12.50;99.90;;;;;;5053466;28;20413;-72
2023/03/23 03:58:48;;;;;;;2.10;1.20;;;12.50;99.90;;;;;;5051894;28;20421;-71
2023/03/23 04:01:15;;;;;;;1.83;1.10;;;12.60;99.90;;;;;;5053358;28;20503;-71
2023/03/23 04:03:40;;;;;;;1.27;1.17;;;12.50;99.90;;;;;;5051928;28;20435;-71
2023/03/23 04:06:07;;;;;;;1.77;1.50;;;12.50;99.90;;;;;;5053212;28;20409;-71
2023/03/23 04:08:34;;;;;;;1.67;1.47;;;12.50;99.90;;;;;;5052952;28;20492;-71
2023/03/23 04:11:00;;;;;;;2.23;1.67;;;12.50;99.90;;;;;;5053200;28;20956;-71
2023/03/23 04:13:25;;;;;;;1.40;1.30;;;12.40;99.90;;;;;;5052920;28;20453;-71
2023/03/23 04:15:51;;;;;;;1.70;1.60;;;12.50;99.90;;;;;;5052999;28;20440;-71
2023/03/23 04:18:18;;;;;;;1.93;1.67;;;12.50;99.90;;;;;;5052888;28;20231;-71
2023/03/23 04:20:48;;;;;;;1.50;1.10;;;12.50;99.90;;;;;;5052925;28;20198;-71
2023/03/23 04:23:19;;;;;;;1.20;1.10;;;12.40;99.90;;;;;;5054022;28;20436;-71
2023/03/23 04:25:46;;;;;;;2.50;1.47;;;12.40;99.90;;;;;;5052892;28;20396;-71
2023/03/23 04:28:13;;;;;;;2.10;1.63;;;12.40;99.90;;;;;;5052791;28;20401;-71
2023/03/23 04:30:42;;;;;;;2.53;1.77;;;12.50;99.90;;;;;;5051482;28;20417;-71
2023/03/23 04:33:14;;;;;;;1.70;1.20;;;12.40;99.90;;;;;;5052646;28;20424;-71
2023/03/23 04:35:41;;;;;;;1.60;1.50;;;12.40;99.90;;;;;;5052701;28;20444;-71
2023/03/23 04:38:07;;;;;;;1.60;1.50;;;12.40;99.90;;;;;;5052472;28;20467;-71
2023/03/23 04:40:36;;;;;;;1.73;1.37;;;12.40;99.90;;;;;;5052583;28;20457;-71
2023/03/23 04:43:05;;;;;;;6.00;1.97;;;12.40;99.90;;;;;;5051096;28;20433;-71
2023/03/23 04:45:32;;;;;;;1.70;1.17;;;12.50;99.90;;;;;;5052503;28;20397;-71
2023/03/23 04:47:58;;;;;;;2.20;1.97;;;12.50;99.90;;;;;;5050503;28;20868;-71
2023/03/23 04:50:30;;;;;;;1.97;1.60;;;12.50;99.90;;;;;;5052418;28;20428;-71
2023/03/23 04:52:57;;;;;;;3.37;1.80;;;12.50;99.90;;;;;;5052437;28;20214;-71
2023/03/23 04:55:25;;;;;;;1.47;1.37;;;12.50;99.90;;;;;;5052397;28;20437;-71
2023/03/23 04:57:50;;;;;;;1.60;1.40;;;12.60;99.90;;;;;;5052223;28;20847;-71
2023/03/23 05:00:17;;;;;;;1.70;1.60;;;12.60;99.90;;;;;;5052313;28;20536;-71
2023/03/23 05:02:46;;;;;;;2.20;1.70;;;12.60;99.90;;;;;;5052150;28;20278;-71
2023/03/23 05:05:14;;;;;;;1.67;1.57;;;12.60;99.90;;;;;;5036119;28;20931;-71
2023/03/23 05:07:41;;;;;;;2.20;2.00;;;12.60;99.90;;;;;;5032037;28;20402;-72
2023/03/23 05:10:08;;;;;;;1.60;1.50;;;12.60;99.90;;;;;;5032366;28;20413;-71
2023/03/23 05:12:34;;;;;;;2.73;1.90;;;12.70;99.90;;;;;;5031942;28;20434;-71
2023/03/23 05:15:00;;;;;;;2.20;2.00;;;12.70;99.90;;;;;;5032196;28;20402;-71
2023/03/23 05:17:26;;;;;;;2.57;1.70;;;12.70;99.90;;;;;;5031983;28;20548;-71
2023/03/23 05:19:53;;;;;;;2.27;1.73;;;12.60;99.90;;;;;;5032037;28;20533;-72
2023/03/23 05:22:20;;;;;;;2.40;2.17;;;12.60;99.90;;;;;;5030778;28;20464;-72
2023/03/23 05:24:46;;;;;;;3.20;1.90;;;12.60;99.90;;;;;;5032088;28;20406;-71
2023/03/23 05:27:12;;;;;;;2.40;2.20;;;12.60;99.90;;;;;;5031945;28;20489;-71
2023/03/23 05:29:40;;;;;;;2.10;1.90;;;12.70;99.90;;;;;;5030950;28;20501;-71
2023/03/23 05:32:07;;;;;;;2.20;1.70;;;12.60;99.90;;;;;;5044755;28;20460;-71
2023/03/23 05:34:36;;;;;;;3.70;1.83;;;12.70;99.90;;;;;;5051824;28;20429;-71
2023/03/23 05:37:03;;;;;;;2.17;1.80;;;12.70;99.90;;;;;;5051757;28;20489;-70
2023/03/23 05:39:30;;;;;;;4.70;1.83;;;12.70;99.90;;;;;;5051625;28;20407;-71
2023/03/23 05:41:56;;;;;;;1.47;1.30;;;12.70;99.90;;;;;;5051760;28;20782;-71
2023/03/23 05:44:22;;;;;;;1.63;1.53;;;12.60;99.90;;;;;;5051795;28;20401;-71
2023/03/23 05:46:48;;;;;;;1.83;1.17;;;12.60;99.90;;;;;;5051704;28;20467;-71
2023/03/23 05:49:18;;;;;;;1.77;1.60;;;12.60;99.90;;;;;;5051558;28;20212;-72
2023/03/23 05:51:45;;;;;;;1.83;1.53;;;12.60;99.90;;;;;;5051766;28;20230;-71
2023/03/23 05:54:11;;;;;;;2.10;1.60;;;12.70;99.90;;;;;;5050424;28;20462;-70
2023/03/23 05:56:37;;;;;;;4.13;1.63;;;12.70;99.90;;;;;;5051606;28;20409;-70
2023/03/23 05:59:03;;;;;;;3.90;1.63;;;12.70;99.90;;;;;;5052543;28;20205;-71
2023/03/23 06:01:29;;;;;;;3.10;1.70;;;12.70;99.90;;;;;;5055553;28;20202;-70
2023/03/23 06:03:58;;;;;;;3.20;2.07;;;12.70;99.90;;;;;;5051255;28;20199;-70
2023/03/23 06:06:24;;;;;;;3.17;1.53;;;12.70;99.90;;;;;;5034620;28;20915;-70
2023/03/23 06:08:50;;;;;;;1.77;1.37;;;12.60;99.90;;;;;;5035339;28;20410;-71
2023/03/23 06:11:16;;;;;;;2.50;1.00;;;12.70;99.90;;;;;;5035498;28;20409;-70
2023/03/23 06:13:41;;;;;;;1.90;1.50;;;12.80;99.90;;;;;;5035328;28;20699;-71
2023/03/23 06:16:08;;;;;;;2.63;1.53;;;12.80;99.90;;;;;;5035414;28;20175;-71
2023/03/23 06:18:36;;;;;;;4.20;1.47;;;12.80;99.90;;;;;;5035151;28;20168;-70
2023/03/23 06:21:03;;;;;;;2.33;1.43;;;12.90;99.90;;;;;;5035395;28;20454;-71
2023/03/23 06:23:29;;;;;;;1.33;1.00;;;13.00;99.90;;;;;;5035164;28;20426;-70
2023/03/23 06:25:59;;;;;;;2.37;1.23;;;13.10;99.90;;;;;;5035385;28;20398;-70
2023/03/23 06:28:24;;;;;;;1.97;1.17;;;13.20;99.90;;;;;;5034962;28;20398;-70
2023/03/23 06:30:50;;;;;;;1.60;1.37;;;13.40;99.90;;;;;;5035173;28;20407;-71
2023/03/23 06:33:16;;;;;;;2.23;1.13;;;13.30;99.90;;;;;;5035023;28;20229;-71
2023/03/23 06:35:43;;;;;;;2.40;1.37;;;13.30;99.90;;;;;;5034924;28;20164;-71
2023/03/23 06:38:08;;;;;;;2.73;1.40;;;13.30;99.90;;;;;;5045341;28;20456;-70
2023/03/23 06:40:35;;;;;;;2.33;1.40;;;13.40;99.90;;;;;;5054948;28;20502;-70
2023/03/23 06:43:01;;;;;;;1.80;1.33;;;13.50;99.90;;;;;;5054829;28;20186;-71
2023/03/23 06:45:27;;;;;;;4.80;1.50;;;13.60;99.90;;;;;;5053565;28;20409;-71
2023/03/23 06:47:52;;;;;;;2.00;1.80;;;13.80;99.90;;;;;;5054495;28;20404;-70
2023/03/23 06:50:18;;;;;;;2.63;1.03;;;13.90;99.90;;;;;;5053473;28;20175;-71
2023/03/23 06:52:48;;;;;;;2.30;1.20;;;13.90;99.90;;;;;;5054662;28;20604;-70
2023/03/23 06:55:14;;;;;;;3.67;1.20;;;14.00;99.90;;;;;;5054695;28;20216;-70
2023/03/23 06:57:41;;;;;;;1.10;1.00;;;14.10;99.90;;;;;;5053004;28;20409;-70
2023/03/23 07:00:09;;;;;;;3.50;1.20;;;14.00;99.90;;;;;;5054474;28;20477;-70
2023/03/23 07:02:35;;;;;;;4.40;1.33;;;14.00;99.90;;;;;;5054300;28;20456;-71
2023/03/23 07:05:01;;;;;;;1.70;0.97;;;14.00;99.90;;;;;;5054454;28;20479;-70
2023/03/23 07:07:26;;;;;;;4.23;1.60;;;14.00;99.90;;;;;;5054191;28;20905;-70
2023/03/23 07:09:52;;;;;;;1.87;1.20;;;14.00;99.90;;;;;;5054377;28;20769;-71
2023/03/23 07:12:17;;;;;;;2.07;1.10;;;14.10;99.90;;;;;;5053610;28;20615;-71
2023/03/23 07:14:43;;;;;;;1.47;1.30;;;14.20;99.90;;;;;;5054226;28;20210;-73
2023/03/23 07:17:09;;;;;;;2.63;0.90;;;14.10;99.90;;;;;;5053915;28;20640;-71
2023/03/23 07:19:35;;;;;;;6.50;1.70;;;14.10;99.90;;;;;;5054160;28;20175;-71
2023/03/23 07:22:01;;;;;;;1.87;1.23;;;14.10;99.90;;;;;;5054015;28;20425;-71
2023/03/23 07:24:27;;;;;;;1.93;1.33;;;14.10;99.90;;;;;;5053999;28;20945;-71
2023/03/23 07:26:52;;;;;;;4.90;1.17;;;14.10;99.90;;;;;;5053726;28;20174;-71
2023/03/23 07:29:18;;;;;;;2.40;1.23;;;14.20;99.90;;;;;;5053911;28;20784;-71
2023/03/23 07:31:44;;;;;;;2.80;1.40;;;14.30;99.90;;;;;;5053750;28;20656;-72
2023/03/23 07:34:09;;;;;;;4.50;1.10;;;14.40;99.90;;;;;;5053840;28;20199;-71
2023/03/23 07:36:37;;;;;;;1.70;0.97;;;14.30;99.90;;;;;;5053882;28;20170;-71
2023/03/23 07:39:05;;;;;;;1.00;0.90;;;14.30;99.90;;;;;;5053566;28;20527;-71
2023/03/23 07:41:31;;;;;;;1.80;1.10;;;14.40;99.90;;;;;;5053688;28;20464;-72
2023/03/23 07:43:57;;;;;;;3.10;1.20;;;14.40;99.90;;;;;;5053557;28;20493;-71
2023/03/23 07:46:22;;;;;;;1.90;1.20;;;14.40;99.90;;;;;;5053597;28;20401;-71
2023/03/23 07:48:48;;;;;;;3.00;1.40;;;14.30;99.90;;;;;;5052919;28;20414;-71
2023/03/23 07:51:16;;;;;;;1.80;1.10;;;14.30;99.90;;;;;;5064886;28;20178;-71
2023/03/23 07:53:44;;;;;;;7.00;2.03;;;14.40;99.90;;;;;;5052140;28;20434;-71
2023/03/23 07:56:11;;;;;;;1.77;1.03;;;14.50;99.90;;;;;;5053435;28;20441;-71
2023/03/23 07:58:37;;;;;;;3.57;1.40;;;14.50;99.90;;;;;;5053520;28;20409;-70
2023/03/23 08:01:02;;;;;;;1.80;1.30;;;14.70;99.90;;;;;;5053815;28;20449;-70
2023/03/23 08:03:28;;;;;;;1.90;1.10;;;14.60;99.90;;;;;;5052641;28;20195;-70
2023/03/23 08:05:58;;;;;;;1.73;1.40;;;14.60;99.90;;;;;;5033436;28;20636;-70
2023/03/23 08:08:24;;;;;;;1.97;1.30;;;14.60;99.90;;;;;;5032990;28;20513;-70
2023/03/23 08:10:50;;;;;;;2.83;1.67;;;14.70;99.90;;;;;;5033355;28;20509;-70
2023/03/23 08:13:16;;;;;;;1.93;1.37;;;14.80;99.90;;;;;;5033058;28;20449;-70
2023/03/23 08:15:42;;;;;;;2.33;0.90;;;14.90;99.90;;;;;;5033102;28;20183;-70
2023/03/23 08:18:09;;;;;;;2.30;1.27;;;14.90;99.90;;;;;;5032884;28;20437;-70
2023/03/23 08:20:35;;;;;;;4.17;1.47;;;14.90;99.90;;;;;;5033019;28;20453;-70
2023/03/23 08:23:02;;;;;;;2.80;1.13;;;14.90;99.90;;;;;;5032968;28;20846;-71
2023/03/23 08:25:30;;;;;;;4.70;1.50;;;15.00;99.90;;;;;;5033005;28;20907;-71
2023/03/23 08:27:57;;;;;;;1.40;1.03;;;15.00;99.90;;;;;;5032643;28;20434;-70
2023/03/23 08:30:24;;;;;;;3.43;1.43;;;15.10;99.90;;;;;;5032891;28;20414;-70
2023/03/23 08:32:50;;;;;;;5.13;1.13;;;15.10;99.90;;;;;;5032780;28;20427;-71
2023/03/23 08:35:17;;;;;;;7.87;1.47;;;15.20;99.90;;;;;;5032810;28;20399;-70
2023/03/23 08:37:43;;;;;;;1.20;0.80;;;15.20;99.90;;;;;;5032516;28;20410;-71
2023/03/23 08:40:11;;;;;;;3.10;1.00;;;15.30;99.90;;;;;;5032653;28;20500;-70
2023/03/23 08:42:37;;;;;;;5.23;1.83;;;15.40;99.90;;;;;;5032504;28;20604;-72
2023/03/23 08:45:05;;;;;;;6.60;1.50;;;15.50;99.90;;;;;;5032634;28;20417;-70
2023/03/23 08:47:31;;;;;;;2.37;1.20;;;15.70;99.90;;;;;;5032929;28;20772;-71
2023/03/23 08:49:56;;;;;;;3.57;2.43;;;15.90;99.90;;;;;;5031788;28;20410;-71
2023/03/23 08:52:22;;;;;;;2.37;1.27;;;16.10;99.90;;;;;;5032969;28;20265;-70
2023/03/23 08:54:48;;;;;;;3.17;1.33;;;16.30;99.90;;;;;;5032493;28;20168;-70
2023/03/23 08:57:18;;;;;;;2.10;1.37;;;16.20;99.90;;;;;;5045338;28;20178;-70
2023/03/23 08:59:44;;;;;;;2.07;1.40;;;16.00;99.90;;;;;;5064377;28;20466;-70
2023/03/23 09:02:12;;;;;;;5.33;1.47;;;15.90;99.90;;;;;;5072192;28;20444;-70
2023/03/23 09:04:42;;;;;;;6.63;1.40;;;15.90;99.90;;;;;;5062050;28;20203;-70
2023/03/23 09:07:12;;;;;;;2.40;1.20;;;15.90;99.90;;;;;;5051889;28;20409;-70
2023/03/23 09:09:39;;;;;;;1.50;1.10;;;16.00;99.90;;;;;;5052174;28;20414;-70
2023/03/23 09:12:06;;;;;;;2.10;1.00;;;16.00;99.90;;;;;;5051946;28;20429;-71
2023/03/23 09:14:32;;;;;;;2.03;1.27;;;16.20;99.90;;;;;;5052920;28;20425;-71
2023/03/23 09:16:57;;;;;;;1.83;1.27;;;16.40;99.90;;;;;;5052482;28;20427;-71
2023/03/23 09:19:23;;;;;;;2.17;1.63;;;16.40;99.90;;;;;;5051440;28;20624;-71
2023/03/23 09:21:48;;;;;;;3.43;1.70;;;16.50;99.90;;;;;;5052468;28;20199;-71
2023/03/23 09:24:15;;;;;;;4.33;1.10;;;16.40;99.90;;;;;;5052684;28;20171;-72
2023/03/23 09:26:41;;;;;;;2.17;1.20;;;16.30;99.90;;;;;;5052881;28;20190;-72
2023/03/23 09:29:06;;;;;;;2.07;1.40;;;16.50;99.90;;;;;;5052234;28;20401;-70
2023/03/23 09:31:32;;;;;;;4.70;1.20;;;16.70;99.90;;;;;;5053053;28;20167;-72
2023/03/23 09:33:59;;;;;;;3.80;1.40;;;16.90;99.90;;;;;;5051713;28;20265;-71
2023/03/23 09:36:25;;;;;;;2.13;1.27;;;17.20;99.90;;;;;;5052283;28;20167;-71
2023/03/23 09:38:52;;;;;;;3.07;1.43;;;17.00;99.90;;;;;;5051681;28;20488;-71
2023/03/23 09:41:44;;;;;;;1.20;0.87;;;16.80;99.90;;;;;;5050765;28;20787;-70
2023/03/23 09:44:47;;;;;;;1.53;0.97;;;16.70;99.90;;;;;;5051813;28;20454;-69
2023/03/23 09:47:25;;;;;;;4.13;1.87;;;16.60;99.90;;;;;;5051087;28;20404;-69
2023/03/23 09:49:57;;;;;;;2.97;1.67;;;16.40;99.90;;;;;;5051907;28;20401;-70
2023/03/23 09:52:32;;;;;;;9.83;1.60;;;16.30;99.90;;;;;;5051419;28;20413;-70
2023/03/23 09:54:59;;;;;;;1.90;1.00;;;16.20;99.90;;;;;;5051749;28;20389;-71
2023/03/23 09:57:54;;;;;;;3.87;1.40;;;16.10;99.90;;;;;;5051562;28;20417;-69
2023/03/23 10:00:30;;;;;;;1.73;1.30;;;16.10;99.90;;;;;;5051693;28;20455;-69
2023/03/23 10:03:18;;;;;;;3.10;0.90;;;16.10;99.90;;;;;;5051593;28;20448;-69
2023/03/23 10:05:49;;;;;;;2.93;1.20;;;16.10;99.90;;;;;;5051592;28;20397;-70
2023/03/23 10:08:27;;;;;;;1.43;0.90;;;15.90;99.90;;;;;;5052535;28;20405;-69
2023/03/23 10:11:02;;;;;;;2.30;1.50;;;15.90;99.90;;;;;;5052669;28;20430;-70
2023/03/23 10:13:42;;;;;;;5.30;1.30;;;15.80;99.90;;;;;;5071426;28;20457;-69
2023/03/23 10:16:14;;;;;;;1.83;0.90;;;15.70;99.90;;;;;;5071679;28;20486;-70
2023/03/23 10:18:39;;;;;;;1.60;0.93;;;15.50;99.90;;;;;;5071180;28;20403;-70
2023/03/23 10:21:11;;;;;;;1.60;1.33;;;15.50;99.90;;;;;;5071494;28;20835;-69
2023/03/23 10:23:58;;;;;;;4.30;1.43;;;15.40;99.90;;;;;;5071414;28;20252;-69
2023/03/23 10:26:48;;;;;;;1.37;0.90;;;15.20;99.90;;;;;;5071505;28;20425;-71
2023/03/23 10:29:26;;;;;;;1.40;1.13;;;15.20;99.90;;;;;;5071202;28;20949;-68
2023/03/23 10:32:01;;;;;;;1.83;1.33;;;15.20;99.90;;;;;;5071327;28;20431;-70
2023/03/23 10:34:44;;;;;;;2.77;1.13;;;15.20;99.90;;;;;;5070232;28;20769;-69
2023/03/23 10:37:21;;;;;;;1.53;1.00;;;15.20;99.90;;;;;;5070927;28;20401;-69
2023/03/23 10:39:54;;;;;;;1.07;0.87;;;15.20;99.90;;;;;;5071309;28;20901;-69
2023/03/23 10:42:35;;;;;;;1.40;0.80;;;15.20;99.90;;;;;;5069939;28;20431;-70
2023/03/23 10:45:17;;;;;;;1.23;1.00;;;15.40;99.90;;;;;;5071407;28;20474;-70
2023/03/23 10:47:47;;;;;;;1.93;0.80;;;15.30;99.90;;;;;;5074335;28;20420;-70
2023/03/23 10:50:17;;;;;;;1.30;0.90;;;15.40;99.90;;;;;;5074827;28;20765;-70
2023/03/23 10:52:44;;;;;;;1.27;0.80;;;15.50;99.90;;;;;;5074676;28;20454;-69
2023/03/23 10:55:11;;;;;;;1.23;0.80;;;15.60;99.90;;;;;;5074669;28;20432;-70
2023/03/23 10:57:40;;;;;;;1.50;0.97;;;15.80;99.90;;;;;;5074337;28;20404;-69
2023/03/23 11:00:07;;;;;;;1.23;1.13;;;16.10;99.90;;;;;;5074511;28;20452;-70
2023/03/23 11:02:40;;;;;;;1.50;0.87;;;16.20;99.90;;;;;;5073155;28;20517;-69
2023/03/23 11:05:34;;;;;;;2.27;1.10;;;16.40;99.90;;;;;;5060404;28;20410;-72
2023/03/23 11:08:01;;;;;;;1.00;0.70;;;16.50;99.90;;;;;;5053706;28;20778;-71
2023/03/23 11:10:36;;;;;;;1.37;0.90;;;16.40;99.90;;;;;;5054627;28;20405;-71
2023/03/23 11:13:04;;;;;;;1.93;1.10;;;16.50;99.90;;;;;;5054141;28;20813;-71
2023/03/23 11:15:32;;;;;;;1.10;0.90;;;16.70;99.90;;;;;;5054380;28;20420;-71
2023/03/23 11:18:07;;;;;;;1.10;0.97;;;16.90;99.90;;;;;;5054146;28;20405;-71
2023/03/23 11:20:41;;;;;;;2.00;0.80;;;17.10;99.90;;;;;;5061748;28;20439;-71
2023/03/23 11:23:17;;;;;;;3.47;0.90;;;17.30;99.90;;;;;;5057385;28;20428;-71
2023/03/23 11:26:01;;;;;;;1.20;1.00;;;17.40;99.90;;;;;;5054078;28;20397;-72
2023/03/23 11:28:35;;;;;;;1.40;0.80;;;17.80;99.90;;;;;;5053825;28;20468;-70
2023/03/23 11:31:03;;;;;;;1.57;1.47;;;18.10;99.90;;;;;;5054051;28;20460;-71
2023/03/23 11:33:30;;;;;;;1.33;0.80;;;18.00;99.90;;;;;;5053778;28;20498;-71
2023/03/23 11:35:56;;;;;;;2.60;1.23;;;17.80;99.90;;;;;;5054068;28;20903;-72
2023/03/23 11:38:25;;;;;;;1.40;0.80;;;17.70;99.90;;;;;;5053800;28;20398;-71
2023/03/23 11:40:52;;;;;;;12.33;1.17;;;17.60;99.90;;;;;;5053797;28;20950;-73
2023/03/23 11:43:21;;;;;;;2.20;1.30;;;17.50;99.90;;;;;;5053981;28;20421;-72
2023/03/23 11:46:13;;;;;;;1.93;0.93;;;17.30;99.90;;;;;;5054018;28;20813;-72
2023/03/23 11:48:46;;;;;;;1.83;1.10;;;17.10;99.90;;;;;;5053581;28;20408;-71
2023/03/23 11:51:21;;;;;;;7.13;2.10;;;16.70;99.90;;;;;;5053699;28;20959;-71
2023/03/23 11:54:00;;;;;;;2.10;0.70;;;16.50;99.90;;;;;;5053463;28;20432;-71
2023/03/23 11:56:36;;;;;;;1.40;0.80;;;16.70;99.90;;;;;;5053274;28;20445;-73
2023/03/23 11:59:03;;;;;;;1.00;0.83;;;18.00;99.90;;;;;;5053395;28;20500;-72
2023/03/23 12:02:03;;;;;;;3.00;0.80;;;18.90;99.90;;;;;;5053489;28;20452;-73
2023/03/23 12:04:48;;;;;;;1.87;0.80;;;19.40;99.90;;;;;;5044822;28;20433;-73
2023/03/23 12:07:17;;;;;;;0.90;0.70;;;20.40;99.90;;;;;;5032563;28;20453;-73
2023/03/23 12:09:48;;;;;;;7.27;0.90;;;20.20;99.90;;;;;;5033510;28;20407;-74
2023/03/23 12:12:44;;;;;;;1.10;0.80;;;20.30;99.90;;;;;;5033271;28;20791;-73
2023/03/23 12:15:29;;;;;;;1.07;0.90;;;21.20;99.10;;;;;;5033125;28;20403;-73
2023/03/23 12:17:57;;;;;;;1.63;1.10;;;20.90;95.70;;;;;;5033081;28;20409;-72
2023/03/23 12:20:52;;;;;;;1.63;1.00;;;20.90;95.60;;;;;;5033009;28;20486;-72
2023/03/23 12:23:41;;;;;;;4.20;0.80;;;22.30;96.40;;;;;;5039994;28;20473;-73
2023/03/23 12:26:21;;;;;;;1.63;1.00;;;22.80;89.80;;;;;;5046267;28;20452;-72
2023/03/23 12:28:50;;;;;;;1.00;0.90;;;21.80;84.70;;;;;;5052573;28;20402;-73
2023/03/23 12:31:19;;;;;;;1.10;1.00;;;21.10;89.10;;;;;;5054008;28;20480;-73
2023/03/23 12:34:12;;;;;;;7.00;1.33;;;20.70;91.00;;;;;;5056119;28;20522;-72
2023/03/23 12:37:16;;;;;;;3.67;1.10;;;20.00;92.20;;;;;;5044802;28;20440;-72
2023/03/23 12:40:23;;;;;;;5.10;1.03;;;19.50;93.00;;;;;;5052611;28;20415;-71
2023/03/23 12:43:04;;;;;;;1.27;0.80;;;18.90;94.70;;;;;;5030200;28;20982;-71
2023/03/23 12:46:03;;;;;;;1.60;1.13;;;18.50;96.60;;;;;;5027354;28;20425;-71
2023/03/23 12:48:57;;;;;;;1.83;1.33;;;18.20;99.90;;;;;;5042938;28;20435;-73
2023/03/23 12:51:57;;;;;;;3.37;1.33;;;18.50;99.90;;;;;;5049413;28;20417;-71
2023/03/23 12:54:36;;;;;;;5.20;1.23;;;19.50;99.90;;;;;;5047404;28;20432;-72
2023/03/23 12:57:27;;;;;;;2.23;1.03;;;20.10;96.30;;;;;;5044460;28;20437;-71
2023/03/23 13:00:11;;;;;;;2.20;1.43;;;19.80;95.40;;;;;;5052269;28;20409;-72
2023/03/23 13:03:11;;;;;;;1.20;0.83;;;19.60;95.20;;;;;;5052295;28;20428;-71
2023/03/23 13:06:00;;;;;;;5.13;1.10;;;19.10;96.40;;;;;;5047719;28;20586;-72